Date,TemperatureHighF,TemperatureAvgF,TemperatureLowF,DewpointHighF,DewpointAvgF,DewpointLowF,HumidityHigh,HumidityAvg,HumidityLow,PressureMaxIn,PressureMinIn,WindSpeedMaxMPH,WindSpeedAvgMPH,GustSpeedMaxMPH,PrecipitationSumIn
2013-2-1,21,13,3,21,13,3,99,99,99,30.34,30.12,21,9,0,0.00
2013-2-2,29,21,10,29,21,10,99,99,99,30.12,29.91,16,7,0,0.00
2013-2-3,28,21,12,27,21,11,99,99,99,30.02,29.90,19,5,0,0.00
2013-2-4,43,30,21,43,30,21,99,99,99,29.97,29.68,13,6,0,0.00
2013-2-5,40,32,24,39,32,24,99,99,99,30.01,29.72,15,6,0,0.00
2013-2-6,44,34,28,44,34,27,99,99,99,30.16,30.01,8,3,0,0.00
2013-2-7,56,40,30,56,39,30,99,99,99,30.03,29.72,20,7,0,0.19
2013-2-8,34,30,26,33,30,26,99,99,99,30.29,29.86,18,9,0,0.00
2013-2-9,42,33,29,42,33,28,99,99,99,30.31,29.99,8,4,0,0.00
2013-2-10,52,43,34,51,43,34,99,99,99,30.01,29.52,17,9,0,0.80
2013-2-11,48,37,29,47,36,29,99,99,99,30.01,29.56,23,12,0,0.00
2013-2-12,36,29,23,36,29,23,99,99,99,30.05,29.84,11,4,0,0.00
2013-2-13,51,36,25,51,35,25,99,99,99,29.85,29.65,12,3,0,0.00
2013-2-14,46,38,32,46,37,32,99,99,99,29.92,29.67,21,8,0,0.00
2013-2-15,34,30,23,34,30,23,99,99,99,30.11,29.91,17,8,0,0.00
2013-2-16,27,21,14,27,21,14,99,99,99,30.11,30.03,14,9,0,0.00
2013-2-17,36,23,6,36,23,6,99,99,99,30.14,29.93,9,3,0,0.00
2013-2-18,54,41,30,54,40,29,99,99,99,29.91,29.41,23,11,0,0.81
2013-2-19,29,22,16,29,22,16,99,99,99,30.12,29.62,27,18,0,0.01
2013-2-20,27,18,8,26,18,8,99,99,99,30.28,30.13,16,8,0,0.00
2013-2-21,31,24,12,30,24,12,99,99,99,30.27,29.79,17,6,0,0.00
2013-2-22,38,32,27,38,32,26,99,99,99,29.92,29.72,17,6,0,0.28
2013-2-23,31,25,17,31,25,16,99,99,99,29.93,29.86,11,5,0,0.00
2013-2-24,42,27,15,42,27,15,99,99,99,30.06,29.92,5,1,0,0.00
2013-2-25,47,34,24,47,34,24,99,99,99,30.06,29.73,13,5,0,0.00
2013-2-26,38,36,33,38,35,33,99,99,99,29.72,29.29,17,7,0,0.02
2013-2-27,35,33,32,34,33,32,99,99,99,29.65,29.45,14,9,0,0.00
2013-2-28,36,33,31,36,32,31,99,99,99,29.96,29.65,14,9,0,0.00